createdAt,value
2019-04-25T00:01:07.950Z,2.10
2019-04-25T00:03:36.796Z,2.20
2019-04-25T00:06:04.531Z,2.07
2019-04-25T00:08:32.088Z,2.20
2019-04-25T00:11:01.626Z,2.20
2019-04-25T00:13:29.614Z,2.00
2019-04-25T00:15:57.121Z,2.00
2019-04-25T00:18:24.603Z,2.10
2019-04-25T00:20:56.634Z,2.30
2019-04-25T00:23:24.195Z,2.23
2019-04-25T00:26:01.344Z,2.20
2019-04-25T00:28:28.763Z,2.10
2019-04-25T00:30:56.333Z,2.30
2019-04-25T00:33:23.751Z,2.17
2019-04-25T00:35:51.750Z,2.20
2019-04-25T00:38:20.214Z,2.10
2019-04-25T00:40:48.078Z,2.43
2019-04-25T00:43:15.552Z,2.10
2019-04-25T00:45:44.316Z,2.20
2019-04-25T00:48:12.244Z,2.30
2019-04-25T00:50:39.680Z,2.40
2019-04-25T00:53:07.026Z,2.37
2019-04-25T00:55:34.361Z,2.50
2019-04-25T00:58:08.428Z,2.30
2019-04-25T01:00:49.325Z,2.50
2019-04-25T01:03:21.705Z,2.30
2019-04-25T01:05:49.619Z,2.40
2019-04-25T01:08:17.123Z,2.20
2019-04-25T01:10:44.567Z,2.20
2019-04-25T01:13:12.024Z,2.20
2019-04-25T01:15:39.496Z,2.30
2019-04-25T01:18:07.434Z,2.20
2019-04-25T01:20:34.835Z,2.30
2019-04-25T01:23:03.714Z,2.30
2019-04-25T01:25:40.338Z,2.40
2019-04-25T01:28:00.491Z,2.30
2019-04-25T01:30:28.130Z,2.40
2019-04-25T01:32:55.582Z,2.20
2019-04-25T01:35:45.312Z,2.30
2019-04-25T01:38:24.184Z,2.20
2019-04-25T01:41:03.191Z,2.30
2019-04-25T01:43:43.729Z,2.30
2019-04-25T01:46:14.592Z,2.13
2019-04-25T01:48:40.862Z,2.30
2019-04-25T01:51:08.266Z,2.50
2019-04-25T01:53:35.708Z,2.50
2019-04-25T01:56:07.491Z,2.40
2019-04-25T01:58:33.760Z,2.30
2019-04-25T02:01:03.176Z,2.50
2019-04-25T02:03:31.442Z,2.10
2019-04-25T02:05:59.114Z,2.20
2019-04-25T02:08:26.546Z,2.10
2019-04-25T02:11:04.793Z,2.10
2019-04-25T02:13:33.643Z,2.30
2019-04-25T02:16:01.450Z,2.50
2019-04-25T02:18:28.780Z,2.20
2019-04-25T02:20:58.861Z,2.30
2019-04-25T02:23:25.405Z,2.37
2019-04-25T02:26:06.761Z,2.30
2019-04-25T02:28:23.702Z,2.13
2019-04-25T02:30:51.275Z,2.20
2019-04-25T02:33:18.647Z,2.70
2019-04-25T02:35:46.876Z,2.30
2019-04-25T02:38:16.914Z,2.50
2019-04-25T02:40:45.399Z,2.20
2019-04-25T02:43:14.215Z,2.33
2019-04-25T02:46:01.709Z,2.20
2019-04-25T02:48:51.514Z,2.37
2019-04-25T02:51:30.183Z,2.40
2019-04-25T02:54:00.066Z,2.37
2019-04-25T02:56:34.281Z,2.10
2019-04-25T02:58:56.774Z,2.33
2019-04-25T03:01:26.173Z,2.60
2019-04-25T03:03:54.550Z,2.30
2019-04-25T03:06:24.709Z,2.27
2019-04-25T03:08:54.072Z,2.33
2019-04-25T03:11:21.246Z,2.60
2019-04-25T03:13:48.736Z,2.27
2019-04-25T03:16:16.170Z,2.60
2019-04-25T03:19:00.558Z,2.27
2019-04-25T03:21:31.249Z,2.43
2019-04-25T03:24:07.993Z,2.57
2019-04-25T03:26:40.410Z,2.43
2019-04-25T03:29:04.953Z,2.40
2019-04-25T03:31:34.947Z,2.40
2019-04-25T03:34:07.361Z,2.40
2019-04-25T03:36:31.620Z,2.60
2019-04-25T03:38:59.010Z,2.50
2019-04-25T03:41:26.402Z,2.60
2019-04-25T03:43:54.130Z,2.40
2019-04-25T03:46:23.244Z,2.33
2019-04-25T03:48:50.946Z,2.70
2019-04-25T03:51:18.245Z,2.50
2019-04-25T03:53:45.589Z,2.70
2019-04-25T03:56:14.676Z,2.50
2019-04-25T03:58:43.799Z,2.37
2019-04-25T04:01:11.592Z,2.30
2019-04-25T04:03:38.919Z,2.60
2019-04-25T04:06:07.655Z,2.40
2019-04-25T04:08:35.790Z,2.60
2019-04-25T04:11:05.333Z,2.50
2019-04-25T04:13:34.128Z,2.70
2019-04-25T04:16:03.290Z,2.40
2019-04-25T04:18:50.492Z,2.83
2019-04-25T04:21:43.594Z,2.70
2019-04-25T04:24:23.912Z,2.53
2019-04-25T04:27:10.689Z,2.80
2019-04-25T04:29:38.232Z,2.57
2019-04-25T04:32:06.843Z,2.50
2019-04-25T04:34:34.450Z,2.60
2019-04-25T04:37:01.796Z,2.40
2019-04-25T04:39:29.169Z,2.50
2019-04-25T04:41:56.519Z,2.53
2019-04-25T04:44:24.160Z,2.80
2019-04-25T04:46:51.746Z,2.60
2019-04-25T04:49:19.094Z,2.70
2019-04-25T04:51:46.446Z,2.60
2019-04-25T04:54:14.646Z,2.93
2019-04-25T04:56:43.852Z,2.60
2019-04-25T04:59:12.362Z,2.50
2019-04-25T05:01:59.468Z,3.10
2019-04-25T05:04:33.427Z,2.47
2019-04-25T05:07:06.673Z,3.00
2019-04-25T05:09:34.070Z,3.00
2019-04-25T05:12:01.528Z,2.80
2019-04-25T05:14:28.943Z,2.57
2019-04-25T05:16:56.400Z,2.80
2019-04-25T05:19:24.071Z,2.87
2019-04-25T05:21:51.574Z,2.60
2019-04-25T05:24:24.582Z,2.70
2019-04-25T05:26:51.760Z,2.60
2019-04-25T05:29:21.323Z,2.50
2019-04-25T05:31:50.765Z,2.80
2019-04-25T05:34:18.320Z,3.07
2019-04-25T05:36:45.909Z,3.10
2019-04-25T05:39:15.668Z,2.60
2019-04-25T05:41:55.941Z,3.10
2019-04-25T05:44:25.143Z,2.80
2019-04-25T05:46:54.013Z,2.47
2019-04-25T05:49:21.798Z,2.70
2019-04-25T05:51:49.240Z,2.40
2019-04-25T05:54:19.014Z,2.30
2019-04-25T05:56:46.519Z,2.57
2019-04-25T05:59:14.001Z,2.80
2019-04-25T06:02:16.190Z,2.70
2019-04-25T06:04:43.945Z,2.67
2019-04-25T06:07:11.439Z,2.50
2019-04-25T06:09:58.317Z,2.40
2019-04-25T06:12:50.728Z,2.50
2019-04-25T06:15:20.498Z,2.60
2019-04-25T06:18:24.837Z,2.80
2019-04-25T06:20:54.296Z,2.57
2019-04-25T06:23:41.912Z,3.70
2019-04-25T06:26:23.089Z,5.70
2019-04-25T06:28:52.051Z,4.90
2019-04-25T06:31:10.785Z,3.37
2019-04-25T06:33:38.431Z,4.60
2019-04-25T06:36:06.037Z,3.73
2019-04-25T06:38:33.594Z,4.43
2019-04-25T06:41:24.669Z,4.00
2019-04-25T06:43:54.179Z,2.97
2019-04-25T06:46:41.293Z,3.83
2019-04-25T06:49:13.478Z,2.53
2019-04-25T06:51:55.102Z,3.00
2019-04-25T06:54:25.254Z,2.43
2019-04-25T06:56:53.559Z,2.63
2019-04-25T06:59:23.017Z,2.50
2019-04-25T07:01:50.430Z,2.87
2019-04-25T07:04:18.425Z,2.70
2019-04-25T07:06:45.886Z,3.30
2019-04-25T07:09:14.602Z,2.60
2019-04-25T07:11:44.040Z,2.50
2019-04-25T07:14:14.225Z,3.10
2019-04-25T07:16:43.330Z,2.37
2019-04-25T07:19:11.057Z,2.50
2019-04-25T07:21:38.811Z,2.40
2019-04-25T07:24:06.367Z,2.30
2019-04-25T07:26:55.752Z,2.30
2019-04-25T07:29:54.642Z,2.30
2019-04-25T07:32:38.845Z,2.50
2019-04-25T07:35:06.694Z,2.50
2019-04-25T07:37:37.229Z,2.20
2019-04-25T07:40:05.904Z,2.40
2019-04-25T07:42:34.275Z,2.10
2019-04-25T07:45:04.251Z,2.40
2019-04-25T07:47:32.489Z,2.40
2019-04-25T07:50:01.315Z,2.30
2019-04-25T07:52:28.855Z,2.30
2019-04-25T07:54:56.350Z,2.40
2019-04-25T07:57:23.896Z,2.20
2019-04-25T07:59:52.162Z,2.37
2019-04-25T08:02:20.674Z,2.20
2019-04-25T08:04:48.097Z,2.30
2019-04-25T08:07:15.527Z,2.20
2019-04-25T08:09:44.255Z,2.30
2019-04-25T08:12:13.339Z,2.40
2019-04-25T08:14:55.272Z,2.00
2019-04-25T08:17:45.016Z,2.20
2019-04-25T08:20:13.549Z,2.33
2019-04-25T08:22:51.952Z,2.50
2019-04-25T08:25:13.793Z,2.43
2019-04-25T08:27:41.326Z,2.30
2019-04-25T08:30:09.003Z,2.40
2019-04-25T08:32:36.717Z,2.30
2019-04-25T08:35:05.558Z,2.30
2019-04-25T08:37:34.435Z,2.43
2019-04-25T08:40:03.904Z,2.50
2019-04-25T08:42:32.734Z,2.43
2019-04-25T08:45:00.787Z,2.30
2019-04-25T08:47:28.216Z,2.67
2019-04-25T08:50:08.681Z,2.23
2019-04-25T08:52:36.366Z,2.17
2019-04-25T08:55:10.434Z,2.40
2019-04-25T08:57:55.904Z,2.40
2019-04-25T09:00:59.223Z,2.80
2019-04-25T09:03:26.458Z,2.30
2019-04-25T09:05:54.132Z,2.60
2019-04-25T09:08:21.638Z,2.43
2019-04-25T09:10:49.087Z,2.90
2019-04-25T09:13:16.638Z,2.40
2019-04-25T09:15:45.663Z,2.60
2019-04-25T09:18:14.118Z,2.70
2019-04-25T09:20:43.082Z,2.40
2019-04-25T09:23:11.200Z,2.80
2019-04-25T09:25:38.746Z,2.70
2019-04-25T09:28:06.381Z,2.40
2019-04-25T09:30:35.014Z,2.50
2019-04-25T09:33:04.662Z,2.80
2019-04-25T09:35:33.470Z,2.57
2019-04-25T09:38:01.171Z,3.10
2019-04-25T09:40:28.766Z,2.83
2019-04-25T09:42:56.396Z,4.03
2019-04-25T09:45:43.907Z,3.20
2019-04-25T09:48:23.131Z,3.15
2019-04-25T09:50:54.819Z,3.90
2019-04-25T09:53:25.541Z,4.60
2019-04-25T09:55:57.240Z,2.80
2019-04-25T09:58:50.068Z,2.80
2019-04-25T10:01:17.567Z,2.90
2019-04-25T10:03:45.728Z,2.87
2019-04-25T10:06:16.060Z,2.62
2019-04-25T10:08:45.361Z,2.70
2019-04-25T10:11:14.789Z,2.75
2019-04-25T10:13:47.852Z,2.70
2019-04-25T10:16:15.296Z,2.50
2019-04-25T10:18:43.697Z,3.08
2019-04-25T10:21:14.152Z,2.47
2019-04-25T10:23:43.741Z,2.80
2019-04-25T10:26:12.539Z,2.87
2019-04-25T10:28:41.619Z,3.00
2019-04-25T10:31:10.219Z,3.60
2019-04-25T10:33:38.863Z,2.92
2019-04-25T10:36:10.275Z,2.77
2019-04-25T10:38:38.117Z,2.70
2019-04-25T10:41:05.914Z,2.70
2019-04-25T10:43:34.339Z,3.05
2019-04-25T10:46:03.483Z,2.55
2019-04-25T10:48:31.488Z,2.83
2019-04-25T10:50:59.090Z,2.70
2019-04-25T10:53:26.820Z,2.70
2019-04-25T10:55:54.798Z,2.60
2019-04-25T10:58:22.497Z,4.00
2019-04-25T11:00:51.584Z,2.80
2019-04-25T11:03:39.625Z,2.50
2019-04-25T11:06:08.007Z,2.40
2019-04-25T11:08:35.458Z,2.50
2019-04-25T11:11:03.775Z,2.53
2019-04-25T11:13:33.900Z,2.43
2019-04-25T11:16:03.120Z,2.50
2019-04-25T11:18:31.446Z,2.60
2019-04-25T11:20:59.525Z,2.33
2019-04-25T11:23:27.006Z,2.20
2019-04-25T11:25:54.523Z,2.60
2019-04-25T11:28:23.457Z,2.70
2019-04-25T11:30:51.102Z,2.60
2019-04-25T11:33:18.833Z,2.30
2019-04-25T11:35:47.764Z,2.50
2019-04-25T11:38:21.250Z,2.43
2019-04-25T11:41:28.361Z,2.20
2019-04-25T11:43:56.824Z,2.33
2019-04-25T11:46:24.431Z,2.40
2019-04-25T11:48:52.674Z,2.10
2019-04-25T11:51:21.560Z,2.30
2019-04-25T11:53:49.091Z,2.40
2019-04-25T11:56:16.613Z,2.27
2019-04-25T11:58:45.649Z,2.30
2019-04-25T12:01:15.052Z,2.50
2019-04-25T12:03:45.093Z,2.47
2019-04-25T12:06:12.016Z,2.40
2019-04-25T12:08:39.849Z,2.20
2019-04-25T12:11:07.695Z,2.20
2019-04-25T12:13:36.686Z,2.40
2019-04-25T12:16:04.455Z,2.23
2019-04-25T12:18:33.345Z,2.17
2019-04-25T12:21:02.041Z,2.10
2019-04-25T12:23:29.675Z,2.20
2019-04-25T12:25:57.641Z,2.30
2019-04-25T12:28:25.461Z,2.20
2019-04-25T12:30:54.955Z,2.30
2019-04-25T12:33:23.909Z,2.50
2019-04-25T12:35:51.996Z,2.60
2019-04-25T12:38:20.446Z,2.50
2019-04-25T12:40:48.200Z,2.80
2019-04-25T12:43:15.806Z,3.87
2019-04-25T12:46:02.370Z,2.90
2019-04-25T12:48:31.157Z,2.70
2019-04-25T12:50:58.774Z,2.73
2019-04-25T12:53:49.398Z,3.27
2019-04-25T12:56:43.296Z,2.90
2019-04-25T12:59:17.217Z,2.60
2019-04-25T13:01:45.679Z,2.70
2019-04-25T13:04:14.680Z,2.40
2019-04-25T13:06:44.848Z,2.50
2019-04-25T13:09:13.884Z,2.70
2019-04-25T13:11:44.075Z,2.50
2019-04-25T13:14:12.440Z,2.67
2019-04-25T13:16:41.675Z,2.50
2019-04-25T13:19:24.103Z,2.60
2019-04-25T13:21:50.030Z,2.40
2019-04-25T13:24:23.340Z,2.53
2019-04-25T13:29:43.379Z,2.43
2019-04-25T13:32:25.907Z,2.50
2019-04-25T13:34:53.824Z,2.50
2019-04-25T13:37:21.482Z,2.30
2019-04-25T13:39:51.460Z,2.50
2019-04-25T13:42:19.081Z,2.83
2019-04-25T13:44:46.574Z,2.70
2019-04-25T13:47:14.387Z,2.60
2019-04-25T13:49:42.394Z,2.50
2019-04-25T13:52:10.373Z,2.60
2019-04-25T13:54:38.276Z,2.57
2019-04-25T13:57:05.926Z,2.50
2019-04-25T13:59:34.808Z,2.23
2019-04-25T14:02:04.556Z,2.30
2019-04-25T14:04:32.072Z,2.40
2019-04-25T14:06:59.798Z,2.70
2019-04-25T14:09:29.144Z,2.43
2019-04-25T14:11:56.930Z,2.40
2019-04-25T14:14:24.702Z,2.50
2019-04-25T14:17:17.158Z,2.10
2019-04-25T14:20:11.668Z,2.40
2019-04-25T14:22:39.765Z,2.10
2019-04-25T14:25:08.051Z,2.40
2019-04-25T14:27:35.741Z,2.27
2019-04-25T14:30:04.034Z,2.63
2019-04-25T14:32:33.487Z,2.80
2019-04-25T14:35:01.266Z,2.30
2019-04-25T14:37:32.252Z,2.40
2019-04-25T14:39:58.240Z,2.50
2019-04-25T14:42:26.478Z,2.60
2019-04-25T14:44:54.022Z,2.50
2019-04-25T14:47:22.083Z,2.60
2019-04-25T14:49:50.752Z,2.50
2019-04-25T14:52:18.289Z,2.40
2019-04-25T14:54:53.745Z,2.70
2019-04-25T14:57:24.261Z,2.50
2019-04-25T14:59:52.065Z,2.60
2019-04-25T15:02:22.954Z,2.60
2019-04-25T15:04:50.518Z,2.30
2019-04-25T15:07:18.135Z,2.10
2019-04-25T15:09:45.735Z,2.30
2019-04-25T15:12:13.781Z,2.47
2019-04-25T15:18:15.350Z,2.50
2019-04-25T15:20:46.753Z,2.47
2019-04-25T15:23:14.332Z,2.80
2019-04-25T15:25:42.169Z,2.40
2019-04-25T15:28:13.307Z,2.60
2019-04-25T15:30:40.992Z,2.50
2019-04-25T15:33:08.787Z,2.50
2019-04-25T15:35:42.665Z,2.60
2019-04-25T15:38:38.834Z,2.60
2019-04-25T15:41:15.611Z,2.10
2019-04-25T15:44:25.158Z,2.70
2019-04-25T15:46:54.068Z,2.30
2019-04-25T15:49:22.238Z,2.50
2019-04-25T15:51:49.949Z,2.40
2019-04-25T15:54:17.485Z,2.60
2019-04-25T15:56:44.998Z,2.30
2019-04-25T15:59:14.309Z,2.73
2019-04-25T16:01:41.904Z,2.50
2019-04-25T16:04:09.425Z,2.30
2019-04-25T16:06:37.264Z,2.50
2019-04-25T16:09:10.344Z,2.60
2019-04-25T16:11:37.645Z,2.63
2019-04-25T16:14:05.286Z,2.80
2019-04-25T16:16:33.235Z,2.60
2019-04-25T16:19:00.952Z,2.70
2019-04-25T16:21:29.134Z,2.37
2019-04-25T16:23:56.674Z,2.50
2019-04-25T16:26:24.286Z,2.47
2019-04-25T16:28:51.794Z,2.67
2019-04-25T16:31:23.436Z,2.30
2019-04-25T16:33:51.114Z,2.70
2019-04-25T16:36:18.657Z,2.47
2019-04-25T16:38:46.469Z,3.13
2019-04-25T16:41:14.151Z,2.70
2019-04-25T16:43:46.130Z,5.47
2019-04-25T16:46:14.061Z,3.00
2019-04-25T16:48:41.616Z,2.77
2019-04-25T16:51:09.106Z,2.73
2019-04-25T16:53:36.606Z,2.20
2019-04-25T16:56:04.887Z,2.70
2019-04-25T16:58:32.977Z,2.70
2019-04-25T17:01:10.235Z,2.80
2019-04-25T17:03:37.998Z,2.70
2019-04-25T17:06:05.803Z,2.67
2019-04-25T17:08:33.899Z,2.43
2019-04-25T17:11:01.458Z,2.70
2019-04-25T17:13:32.056Z,2.80
2019-04-25T17:16:09.216Z,2.60
2019-04-25T17:19:01.045Z,2.60
2019-04-25T17:21:31.325Z,2.60
2019-04-25T17:23:59.227Z,2.60
2019-04-25T17:26:28.923Z,2.60
2019-04-25T17:28:59.499Z,2.60
2019-04-25T17:31:38.860Z,2.40
2019-04-25T17:34:29.309Z,2.60
2019-04-25T17:37:19.385Z,2.70
2019-04-25T17:39:49.645Z,2.60
2019-04-25T17:42:17.325Z,2.90
2019-04-25T17:44:45.061Z,2.60
2019-04-25T17:47:12.636Z,2.60
2019-04-25T17:49:40.374Z,2.70
2019-04-25T17:52:08.217Z,2.73
2019-04-25T17:54:36.643Z,2.70
2019-04-25T17:57:04.553Z,2.80
2019-04-25T17:59:32.287Z,3.00
2019-04-25T18:02:01.083Z,2.87
2019-04-25T18:04:28.876Z,2.80
2019-04-25T18:06:56.522Z,2.80
2019-04-25T18:09:24.437Z,2.60
2019-04-25T18:11:54.890Z,2.70
2019-04-25T18:14:22.581Z,2.80
2019-04-25T18:16:50.060Z,2.80
2019-04-25T18:19:43.288Z,2.70
2019-04-25T18:22:43.386Z,2.73
2019-04-25T18:25:24.449Z,2.60
2019-04-25T18:28:20.738Z,2.70
2019-04-25T18:30:48.515Z,2.83
2019-04-25T18:33:28.802Z,2.90
2019-04-25T18:36:15.413Z,2.70
2019-04-25T18:39:01.114Z,4.00
2019-04-25T18:41:37.716Z,3.40
2019-04-25T18:44:05.262Z,3.20
2019-04-25T18:46:38.254Z,2.97
2019-04-25T18:49:05.974Z,2.83
2019-04-25T18:51:33.515Z,2.80
2019-04-25T18:54:29.682Z,2.80
2019-04-25T18:57:24.870Z,2.90
2019-04-25T19:00:11.775Z,2.83
2019-04-25T19:02:58.790Z,3.03
2019-04-25T19:05:45.129Z,2.90
2019-04-25T19:08:12.799Z,2.90
2019-04-25T19:10:40.779Z,2.80
2019-04-25T19:13:13.003Z,3.10
2019-04-25T19:15:40.229Z,3.00
2019-04-25T19:18:08.652Z,3.00
2019-04-25T19:20:36.454Z,2.80
2019-04-25T19:23:04.126Z,2.67
2019-04-25T19:25:31.712Z,2.90
2019-04-25T19:27:59.310Z,2.80
2019-04-25T19:30:27.124Z,3.23
2019-04-25T19:32:54.618Z,3.20
2019-04-25T19:35:22.225Z,3.00
2019-04-25T19:37:53.621Z,3.17
2019-04-25T19:40:33.106Z,2.63
2019-04-25T19:43:04.780Z,2.70
2019-04-25T19:45:33.358Z,2.73
2019-04-25T19:48:07.359Z,2.60
2019-04-25T19:50:34.930Z,2.70
2019-04-25T19:53:05.259Z,2.50
2019-04-25T19:55:32.733Z,2.80
2019-04-25T19:58:01.741Z,2.70
2019-04-25T20:00:29.477Z,2.60
2019-04-25T20:03:11.495Z,2.43
2019-04-25T20:11:53.625Z,2.30
2019-04-25T20:14:21.225Z,2.33
2019-04-25T20:16:49.656Z,2.23
2019-04-25T20:19:17.514Z,2.10
2019-04-25T20:21:45.784Z,2.37
2019-04-25T20:24:16.095Z,2.47
2019-04-25T20:27:10.751Z,2.40
2019-04-25T20:29:57.834Z,2.20
2019-04-25T20:32:25.490Z,2.20
2019-04-25T20:34:53.184Z,2.57
2019-04-25T20:37:20.727Z,2.20
2019-04-25T20:39:49.374Z,2.40
2019-04-25T20:42:16.981Z,2.30
2019-04-25T20:44:45.412Z,2.20
2019-04-25T20:47:14.016Z,2.30
2019-04-25T20:49:41.637Z,2.40
2019-04-25T20:52:09.171Z,2.30
2019-04-25T20:54:57.430Z,2.30
2019-04-25T20:58:05.018Z,2.40
2019-04-25T21:00:40.029Z,2.30
2019-04-25T21:03:08.053Z,2.30
2019-04-25T21:06:03.662Z,2.30
2019-04-25T21:08:31.283Z,2.30
2019-04-25T21:10:59.071Z,2.30
2019-04-25T21:13:35.786Z,2.40
2019-04-25T21:16:13.561Z,2.43
2019-04-25T21:18:51.062Z,2.20
2019-04-25T21:21:19.109Z,2.20
2019-04-25T21:23:47.043Z,2.00
2019-04-25T21:26:15.565Z,2.13
2019-04-25T21:28:43.403Z,2.00
2019-04-25T21:31:11.125Z,2.20
2019-04-25T21:33:39.430Z,2.20
2019-04-25T21:36:07.190Z,2.00
2019-04-25T21:38:35.387Z,2.30
2019-04-25T21:41:26.958Z,2.63
2019-04-25T21:44:00.195Z,2.40
2019-04-25T21:46:59.111Z,2.53
2019-04-25T21:49:28.785Z,2.20
2019-04-25T21:51:57.036Z,2.20
2019-04-25T21:54:24.520Z,2.30
2019-04-25T21:56:53.306Z,2.50
2019-04-25T21:59:21.611Z,2.10
2019-04-25T22:01:50.255Z,2.20
2019-04-25T22:04:17.817Z,2.20
2019-04-25T22:06:54.163Z,2.10
2019-04-25T22:09:23.502Z,2.10
2019-04-25T22:11:51.396Z,2.10
2019-04-25T22:14:19.264Z,2.20
2019-04-25T22:16:47.242Z,2.10
2019-04-25T22:19:15.008Z,2.10
2019-04-25T22:21:43.020Z,2.20
2019-04-25T22:24:14.499Z,2.17
2019-04-25T22:26:40.783Z,2.07
2019-04-25T22:29:08.917Z,2.10
2019-04-25T22:31:43.685Z,2.20
2019-04-25T22:34:20.510Z,2.10
2019-04-25T22:36:48.867Z,2.20
2019-04-25T22:39:16.299Z,2.20
2019-04-25T22:41:46.808Z,2.30
2019-04-25T22:44:16.277Z,2.00
2019-04-25T22:46:44.357Z,2.20
2019-04-25T22:49:12.887Z,2.03
2019-04-25T22:51:40.339Z,2.20
2019-04-25T22:54:10.031Z,2.20
2019-04-25T22:56:38.484Z,2.03
2019-04-25T22:59:07.050Z,2.00
2019-04-25T23:01:56.736Z,2.20
2019-04-25T23:04:34.197Z,2.07
2019-04-25T23:07:02.558Z,2.17
2019-04-25T23:09:32.531Z,2.10
2019-04-25T23:12:00.416Z,2.03
2019-04-25T23:14:28.165Z,2.10
2019-04-25T23:16:55.687Z,2.10
2019-04-25T23:19:23.161Z,2.20
2019-04-25T23:21:52.631Z,2.20
2019-04-25T23:24:21.891Z,2.10
2019-04-25T23:27:08.153Z,2.10
2019-04-25T23:29:36.779Z,2.10
2019-04-25T23:32:05.659Z,2.10
2019-04-25T23:34:33.712Z,2.10
2019-04-25T23:37:04.713Z,2.10
2019-04-25T23:39:33.074Z,2.40
2019-04-25T23:42:00.523Z,2.30
2019-04-25T23:44:27.999Z,2.30
2019-04-25T23:46:55.869Z,2.20
2019-04-25T23:49:23.296Z,2.20
2019-04-25T23:51:51.047Z,2.10
2019-04-25T23:54:18.395Z,2.33
2019-04-25T23:56:45.854Z,2.30
2019-04-25T23:59:13.573Z,2.20
